createdAt,value
2019-02-15T00:01:28.183Z,99265.28
2019-02-15T00:03:56.343Z,99262.89
2019-02-15T00:06:24.503Z,99259.41
2019-02-15T00:08:52.648Z,99262.60
2019-02-15T00:11:20.831Z,99257.25
2019-02-15T00:13:48.970Z,99255.61
2019-02-15T00:16:17.155Z,99254.01
2019-02-15T00:19:07.029Z,99252.41
2019-02-15T00:21:39.316Z,99256.44
2019-02-15T00:24:07.521Z,99256.44
2019-02-15T00:26:35.682Z,99255.34
2019-02-15T00:29:03.832Z,99250.80
2019-02-15T00:31:32.001Z,99250.25
2019-02-15T00:34:00.154Z,99248.92
2019-02-15T00:36:28.309Z,99255.89
2019-02-15T00:38:56.480Z,99255.36
2019-02-15T00:41:24.667Z,99256.70
2019-02-15T00:43:52.799Z,99261.78
2019-02-15T00:46:52.000Z,99260.97
2019-02-15T00:49:30.558Z,99255.63
2019-02-15T00:52:16.429Z,99254.55
2019-02-15T00:55:06.574Z,99254.53
2019-02-15T00:58:02.618Z,99255.08
2019-02-15T01:00:52.715Z,99259.09
2019-02-15T01:03:42.869Z,99255.08
2019-02-15T01:06:35.999Z,99260.43
2019-02-15T01:09:41.637Z,99257.50
2019-02-15T01:12:13.585Z,99259.63
2019-02-15T01:14:41.782Z,99261.26
2019-02-15T01:17:10.405Z,99258.56
2019-02-15T01:19:38.608Z,99255.35
2019-02-15T01:22:06.775Z,99263.39
2019-02-15T01:24:34.958Z,99260.19
2019-02-15T01:27:17.675Z,99259.36
2019-02-15T01:30:17.112Z,99262.59
2019-02-15T01:32:59.505Z,99260.16
2019-02-15T01:35:40.696Z,99258.04
2019-02-15T01:41:22.013Z,99251.59
2019-02-15T01:44:10.357Z,99258.58
2019-02-15T01:47:00.707Z,99253.20
2019-02-15T01:49:28.926Z,99248.09
2019-02-15T01:51:57.084Z,99244.07
2019-02-15T01:54:25.301Z,99244.86
2019-02-15T01:56:53.476Z,99237.63
2019-02-15T01:59:21.650Z,99238.69
2019-02-15T02:01:49.870Z,99242.45
2019-02-15T02:04:18.134Z,99242.19
2019-02-15T02:06:46.280Z,99237.09
2019-02-15T02:09:14.552Z,99242.45
2019-02-15T02:11:42.736Z,99239.77
2019-02-15T02:14:10.903Z,99236.27
2019-02-15T02:16:39.069Z,99236.55
2019-02-15T02:19:07.248Z,99228.48
2019-02-15T02:21:35.438Z,99230.34
2019-02-15T02:24:03.623Z,99233.05
2019-02-15T02:26:31.829Z,99229.01
2019-02-15T02:28:59.991Z,99225.80
2019-02-15T02:31:28.208Z,99227.14
2019-02-15T02:33:56.357Z,99223.91
2019-02-15T02:36:35.792Z,99215.86
2019-02-15T02:39:04.742Z,99217.47
2019-02-15T02:41:32.881Z,99227.12
2019-02-15T02:44:01.053Z,99219.60
2019-02-15T02:46:29.251Z,99218.81
2019-02-15T02:48:57.427Z,99225.25
2019-02-15T02:51:25.637Z,99225.52
2019-02-15T02:53:53.814Z,99227.94
2019-02-15T02:56:22.013Z,99226.86
2019-02-15T02:58:50.171Z,99223.92
2019-02-15T03:01:18.292Z,99225.23
2019-02-15T03:03:46.434Z,99220.70
2019-02-15T03:06:14.569Z,99225.52
2019-02-15T03:08:42.746Z,99228.73
2019-02-15T03:11:10.874Z,99227.13
2019-02-15T03:13:39.026Z,99229.81
2019-02-15T03:16:07.172Z,99221.76
2019-02-15T03:18:35.310Z,99219.34
2019-02-15T03:21:03.480Z,99220.95
2019-02-15T03:23:31.650Z,99214.80
2019-02-15T03:25:59.810Z,99221.21
2019-02-15T03:28:28.011Z,99218.27
2019-02-15T03:30:56.250Z,99208.34
2019-02-15T03:33:24.358Z,99212.37
2019-02-15T03:35:57.810Z,99209.40
2019-02-15T03:38:32.514Z,99215.58
2019-02-15T03:41:03.034Z,99212.35
2019-02-15T03:43:31.183Z,99219.61
2019-02-15T03:45:59.554Z,99220.41
2019-02-15T03:48:27.680Z,99222.30
2019-02-15T03:50:55.823Z,99213.17
2019-02-15T03:53:23.974Z,99219.85
2019-02-15T03:55:52.122Z,99217.20
2019-02-15T03:58:20.271Z,99216.12
2019-02-15T04:00:48.427Z,99217.16
2019-02-15T04:03:16.557Z,99216.64
2019-02-15T04:05:44.716Z,99218.80
2019-02-15T04:08:12.853Z,99214.22
2019-02-15T04:10:41.012Z,99211.55
2019-02-15T04:13:09.188Z,99212.07
2019-02-15T04:15:37.297Z,99211.28
2019-02-15T04:18:05.430Z,99207.00
2019-02-15T04:20:33.561Z,99205.63
2019-02-15T04:23:01.760Z,99207.78
2019-02-15T04:25:29.954Z,99209.39
2019-02-15T04:27:58.132Z,99206.72
2019-02-15T04:30:26.286Z,99207.52
2019-02-15T04:32:54.412Z,99199.73
2019-02-15T04:35:22.572Z,99198.13
2019-02-15T04:37:50.713Z,99198.92
2019-02-15T04:40:18.844Z,99200.27
2019-02-15T04:42:47.019Z,99200.00
2019-02-15T04:45:15.144Z,99199.19
2019-02-15T04:47:43.310Z,99190.61
2019-02-15T04:50:11.535Z,99189.27
2019-02-15T04:52:39.734Z,99185.52
2019-02-15T04:55:07.885Z,99189.27
2019-02-15T04:57:36.928Z,99181.48
2019-02-15T05:00:05.466Z,99185.25
2019-02-15T05:02:33.601Z,99183.91
2019-02-15T05:05:01.895Z,99179.88
2019-02-15T05:07:30.257Z,99185.52
2019-02-15T05:09:58.393Z,99194.06
2019-02-15T05:12:26.562Z,99198.91
2019-02-15T05:14:54.719Z,99198.38
2019-02-15T05:17:22.847Z,99195.41
2019-02-15T05:19:50.994Z,99195.92
2019-02-15T05:22:19.215Z,99203.42
2019-02-15T05:24:47.396Z,99195.92
2019-02-15T05:27:15.521Z,99190.83
2019-02-15T05:29:43.665Z,99190.30
2019-02-15T05:32:11.821Z,99198.88
2019-02-15T05:34:39.970Z,99197.56
2019-02-15T05:37:08.295Z,99198.06
2019-02-15T05:39:36.427Z,99191.09
2019-02-15T05:42:04.604Z,99191.35
2019-02-15T05:44:32.751Z,99191.36
2019-02-15T05:47:00.866Z,99191.88
2019-02-15T05:49:29.003Z,99188.94
2019-02-15T05:51:57.141Z,99196.20
2019-02-15T05:54:25.298Z,99196.98
2019-02-15T05:56:53.512Z,99195.09
2019-02-15T05:59:21.629Z,99192.70
2019-02-15T06:01:49.817Z,99189.20
2019-02-15T06:04:17.956Z,99194.83
2019-02-15T06:06:46.113Z,99182.23
2019-02-15T06:09:14.252Z,99180.34
2019-02-15T06:11:42.401Z,99175.23
2019-02-15T06:14:10.572Z,99178.74
2019-02-15T06:16:38.709Z,99189.18
2019-02-15T06:19:06.873Z,99186.79
2019-02-15T06:21:35.027Z,99189.47
2019-02-15T06:24:03.209Z,99194.02
2019-02-15T06:26:31.346Z,99192.94
2019-02-15T06:28:59.494Z,99183.55
2019-02-15T06:31:27.675Z,99187.31
2019-02-15T06:33:55.805Z,99192.95
2019-02-15T06:36:25.617Z,99193.20
2019-02-15T06:38:53.749Z,99200.47
2019-02-15T06:41:21.900Z,99198.30
2019-02-15T06:43:50.093Z,99201.52
2019-02-15T06:46:18.247Z,99197.49
2019-02-15T06:48:46.386Z,99201.25
2019-02-15T06:51:14.519Z,99200.98
2019-02-15T06:53:42.813Z,99199.38
2019-02-15T06:56:11.177Z,99206.88
2019-02-15T06:58:45.966Z,99212.53
2019-02-15T07:01:20.512Z,99209.04
2019-02-15T07:03:55.860Z,99211.98
2019-02-15T07:06:23.988Z,99213.58
2019-02-15T07:08:52.137Z,99219.23
2019-02-15T07:11:20.309Z,99218.95
2019-02-15T07:13:48.461Z,99220.58
2019-02-15T07:16:16.724Z,99220.84
2019-02-15T07:18:44.874Z,99221.66
2019-02-15T07:21:13.003Z,99222.18
2019-02-15T07:23:41.213Z,99219.79
2019-02-15T07:26:09.342Z,99214.16
2019-02-15T07:28:37.490Z,99219.50
2019-02-15T07:31:05.640Z,99216.03
2019-02-15T07:33:33.781Z,99224.07
2019-02-15T07:36:02.239Z,99226.76
2019-02-15T07:38:30.381Z,99229.70
2019-02-15T07:40:58.566Z,99229.70
2019-02-15T07:43:26.706Z,99228.39
2019-02-15T07:45:54.851Z,99228.91
2019-02-15T07:48:23.052Z,99224.89
2019-02-15T07:50:51.234Z,99231.33
2019-02-15T07:53:19.403Z,99233.75
2019-02-15T07:55:47.563Z,99244.80
2019-02-15T07:58:15.804Z,99242.66
2019-02-15T08:00:43.950Z,99246.69
2019-02-15T08:03:12.125Z,99242.69
2019-02-15T08:05:40.274Z,99246.17
2019-02-15T08:08:08.436Z,99246.45
2019-02-15T08:10:36.580Z,99237.59
2019-02-15T08:13:04.856Z,99237.58
2019-02-15T08:15:36.338Z,99230.34
2019-02-15T08:18:02.873Z,99240.56
2019-02-15T08:20:31.116Z,99235.47
2019-02-15T08:22:59.306Z,99232.23
2019-02-15T08:25:27.470Z,99234.12
2019-02-15T08:27:55.609Z,99239.48
2019-02-15T08:30:23.765Z,99233.84
2019-02-15T08:32:51.948Z,99233.05
2019-02-15T08:35:20.234Z,99235.48
2019-02-15T08:37:48.374Z,99234.92
2019-02-15T08:40:16.528Z,99234.94
2019-02-15T08:42:44.819Z,99229.83
2019-02-15T08:45:12.992Z,99238.70
2019-02-15T08:47:41.158Z,99254.55
2019-02-15T08:50:09.567Z,99236.56
2019-02-15T08:52:37.671Z,99234.95
2019-02-15T08:55:06.092Z,99229.86
2019-02-15T08:57:34.226Z,99228.50
2019-02-15T09:00:02.401Z,99227.98
2019-02-15T09:02:30.526Z,99233.36
2019-02-15T09:04:58.985Z,99241.65
2019-02-15T09:07:27.130Z,99244.34
2019-02-15T09:09:55.309Z,99244.92
2019-02-15T09:12:23.433Z,99243.02
2019-02-15T09:14:51.581Z,99242.50
2019-02-15T09:17:19.813Z,99247.60
2019-02-15T09:19:48.070Z,99247.88
2019-02-15T09:22:16.229Z,99250.28
2019-02-15T09:24:44.370Z,99251.06
2019-02-15T09:27:24.519Z,99253.77
2019-02-15T09:29:52.658Z,99252.14
2019-02-15T09:32:20.809Z,99257.50
2019-02-15T09:34:48.950Z,99251.33
2019-02-15T09:37:17.141Z,99254.02
2019-02-15T09:39:45.273Z,99254.81
2019-02-15T09:42:13.442Z,99249.72
2019-02-15T09:44:41.635Z,99246.48
2019-02-15T09:47:09.794Z,99246.46
2019-02-15T09:49:37.938Z,99249.66
2019-02-15T09:52:06.139Z,99242.14
2019-02-15T09:54:34.293Z,99245.88
2019-02-15T09:57:02.545Z,99243.47
2019-02-15T09:59:30.697Z,99240.22
2019-02-15T10:01:58.870Z,99243.19
2019-02-15T10:04:27.006Z,99242.35
2019-02-15T10:06:55.304Z,99244.77
2019-02-15T10:09:23.549Z,99244.77
2019-02-15T10:11:51.714Z,99245.86
2019-02-15T10:14:19.848Z,99246.11
2019-02-15T10:16:48.091Z,99246.91
2019-02-15T10:19:22.224Z,99249.31
2019-02-15T10:21:46.019Z,99237.20
2019-02-15T10:24:14.202Z,99236.38
2019-02-15T10:26:42.373Z,99234.46
2019-02-15T10:29:10.713Z,99227.74
2019-02-15T10:31:38.868Z,99229.05
2019-02-15T10:34:07.047Z,99231.22
2019-02-15T10:36:35.179Z,99225.56
2019-02-15T10:39:04.798Z,99222.59
2019-02-15T10:41:33.016Z,99216.42
2019-02-15T10:44:01.191Z,99208.82
2019-02-15T10:46:37.489Z,99211.77
2019-02-15T10:48:59.101Z,99206.13
2019-02-15T10:51:27.232Z,99199.94
2019-02-15T10:53:55.396Z,99196.45
2019-02-15T10:56:23.531Z,99197.48
2019-02-15T10:58:51.693Z,99189.12
2019-02-15T11:01:19.850Z,99191.52
2019-02-15T11:03:48.099Z,99188.55
2019-02-15T11:06:16.235Z,99191.23
2019-02-15T11:08:44.372Z,99183.73
2019-02-15T11:11:12.666Z,99190.47
2019-02-15T11:13:40.864Z,99187.48
2019-02-15T11:16:09.110Z,99184.53
2019-02-15T11:18:37.275Z,99180.49
2019-02-15T11:21:05.423Z,99179.45
2019-02-15T11:23:33.593Z,99177.52
2019-02-15T11:26:01.738Z,99175.66
2019-02-15T11:28:29.890Z,99172.41
2019-02-15T11:30:58.040Z,99169.42
2019-02-15T11:33:26.227Z,99086.31
2019-02-15T11:35:54.481Z,99166.73
2019-02-15T11:38:22.650Z,99164.06
2019-02-15T11:40:50.823Z,99163.55
2019-02-15T11:43:18.974Z,99158.75
2019-02-15T11:45:47.125Z,99152.77
2019-02-15T11:48:15.303Z,99142.25
2019-02-15T11:50:43.446Z,99140.91
2019-02-15T11:53:11.600Z,99138.77
2019-02-15T11:55:39.751Z,99133.89
2019-02-15T11:58:07.920Z,99137.37
2019-02-15T12:00:36.417Z,99137.12
2019-02-15T12:03:04.577Z,99135.48
2019-02-15T12:05:32.730Z,99130.70
2019-02-15T12:08:00.867Z,99126.66
2019-02-15T12:10:29.033Z,99123.13
2019-02-15T12:12:57.246Z,99119.59
2019-02-15T12:15:25.436Z,99117.18
2019-02-15T12:17:53.687Z,99114.48
2019-02-15T12:20:21.877Z,99111.83
2019-02-15T12:22:50.116Z,99103.19
2019-02-15T12:25:18.296Z,99105.41
2019-02-15T12:27:46.446Z,99103.50
2019-02-15T12:30:14.633Z,99102.48
2019-02-15T12:32:42.795Z,99096.83
2019-02-15T12:35:11.119Z,99090.88
2019-02-15T12:37:39.287Z,99084.94
2019-02-15T12:40:07.588Z,99087.03
2019-02-15T12:42:35.775Z,99086.50
2019-02-15T12:45:04.308Z,99081.62
2019-02-15T12:47:32.478Z,99074.89
2019-02-15T12:50:00.666Z,99073.51
2019-02-15T12:52:28.893Z,99070.25
2019-02-15T12:54:57.065Z,99069.72
2019-02-15T12:57:25.277Z,99077.83
2019-02-15T12:59:53.657Z,99070.59
2019-02-15T13:02:21.844Z,99063.84
2019-02-15T13:04:50.052Z,99064.87
2019-02-15T13:07:18.302Z,99061.89
2019-02-15T13:09:46.468Z,99054.84
2019-02-15T13:12:14.784Z,99048.14
2019-02-15T13:14:43.003Z,98985.23
2019-02-15T13:17:11.201Z,99044.81
2019-02-15T13:19:39.461Z,99042.36
2019-02-15T13:22:08.058Z,99040.23
2019-02-15T13:24:36.323Z,99037.55
2019-02-15T13:27:10.716Z,99036.41
2019-02-15T13:29:39.036Z,99033.75
2019-02-15T13:32:10.272Z,99028.37
2019-02-15T13:34:43.967Z,99029.96
2019-02-15T13:37:13.209Z,99016.77
2019-02-15T13:39:43.121Z,99014.30
2019-02-15T13:42:12.994Z,99016.00
2019-02-15T13:44:41.438Z,99016.49
2019-02-15T13:47:11.637Z,99013.02
2019-02-15T13:49:40.707Z,99006.00
2019-02-15T13:52:10.319Z,99007.59
2019-02-15T13:54:38.723Z,99002.21
2019-02-15T13:57:06.997Z,99003.59
2019-02-15T13:59:35.145Z,99000.61
2019-02-15T14:02:04.246Z,98992.78
2019-02-15T14:04:32.387Z,98995.80
2019-02-15T14:07:00.655Z,98991.23
2019-02-15T14:09:28.924Z,98982.63
2019-02-15T14:11:57.111Z,98981.77
2019-02-15T14:14:25.367Z,98975.77
2019-02-15T14:16:53.680Z,98977.07
2019-02-15T14:19:22.888Z,98977.88
2019-02-15T14:21:51.068Z,98974.33
2019-02-15T14:24:19.314Z,98980.29
2019-02-15T14:26:47.494Z,98971.63
2019-02-15T14:29:15.738Z,98978.95
2019-02-15T14:31:43.904Z,98971.44
2019-02-15T14:34:12.081Z,98963.39
2019-02-15T14:36:40.491Z,98961.23
2019-02-15T14:39:11.801Z,98957.97
2019-02-15T14:41:40.279Z,98960.38
2019-02-15T14:44:09.358Z,98957.64
2019-02-15T14:46:37.749Z,98959.60
2019-02-15T14:49:06.166Z,98956.87
2019-02-15T14:51:34.443Z,98957.12
2019-02-15T14:54:02.723Z,98956.83
2019-02-15T14:56:30.865Z,98952.50
2019-02-15T14:58:59.079Z,98953.45
2019-02-15T15:01:27.414Z,98953.98
2019-02-15T15:03:55.648Z,98944.05
2019-02-15T15:06:23.844Z,98939.73
2019-02-15T15:08:52.026Z,98940.27
2019-02-15T15:11:20.184Z,98941.32
2019-02-15T15:13:48.543Z,98943.00
2019-02-15T15:16:16.782Z,98875.06
2019-02-15T15:18:44.979Z,98939.49
2019-02-15T15:21:13.141Z,98944.88
2019-02-15T15:23:41.397Z,98943.78
2019-02-15T15:26:12.104Z,98937.94
2019-02-15T15:28:39.939Z,98935.45
2019-02-15T15:31:08.118Z,98927.96
2019-02-15T15:33:36.425Z,98931.16
2019-02-15T15:36:04.662Z,98928.23
2019-02-15T15:38:32.953Z,98929.88
2019-02-15T15:41:01.245Z,98929.31
2019-02-15T15:43:29.567Z,98924.73
2019-02-15T15:45:57.788Z,98921.79
2019-02-15T15:48:26.085Z,98919.91
2019-02-15T15:50:54.282Z,98919.09
2019-02-15T15:53:22.411Z,98923.08
2019-02-15T15:55:50.616Z,98920.19
2019-02-15T15:58:18.782Z,98918.28
2019-02-15T16:00:46.933Z,98924.68
2019-02-15T16:05:48.900Z,98916.41
2019-02-15T16:08:17.064Z,98916.94
2019-02-15T16:10:45.221Z,98918.00
2019-02-15T16:13:13.381Z,98919.88
2019-02-15T16:15:41.544Z,98917.50
2019-02-15T16:18:09.709Z,98920.98
2019-02-15T16:20:37.835Z,98926.61
2019-02-15T16:23:06.018Z,98921.80
2019-02-15T16:25:34.143Z,98919.91
2019-02-15T16:28:02.277Z,98918.58
2019-02-15T16:30:30.428Z,98924.77
2019-02-15T16:32:58.573Z,98919.39
2019-02-15T16:35:26.757Z,98921.02
2019-02-15T16:37:54.889Z,98920.73
2019-02-15T16:40:23.439Z,98915.88
2019-02-15T16:42:51.816Z,98918.05
2019-02-15T16:45:19.963Z,98918.34
2019-02-15T16:47:48.102Z,98914.34
2019-02-15T16:50:16.239Z,98915.15
2019-02-15T16:52:44.376Z,98914.58
2019-02-15T16:55:13.476Z,98910.55
2019-02-15T16:58:01.261Z,98917.64
2019-02-15T17:00:29.437Z,98919.20
2019-02-15T17:02:57.593Z,98918.98
2019-02-15T17:05:25.734Z,98916.79
2019-02-15T17:07:53.941Z,98918.66
2019-02-15T17:10:22.212Z,98918.14
2019-02-15T17:12:50.350Z,98920.26
2019-02-15T17:15:18.489Z,98920.09
2019-02-15T17:17:46.656Z,98923.06
2019-02-15T17:20:14.830Z,98936.31
2019-02-15T17:22:42.972Z,98932.78
2019-02-15T17:25:11.124Z,98936.23
2019-02-15T17:27:39.277Z,98934.04
2019-02-15T17:32:55.065Z,98938.45
2019-02-15T17:35:42.102Z,98940.36
2019-02-15T17:38:10.266Z,98896.22
2019-02-15T17:40:38.395Z,98932.57
2019-02-15T17:43:06.537Z,98932.24
2019-02-15T17:45:34.677Z,98928.20
2019-02-15T17:48:02.820Z,98930.73
2019-02-15T17:50:30.980Z,98932.36
2019-02-15T17:52:59.113Z,98925.34
2019-02-15T17:55:27.293Z,98923.19
2019-02-15T17:57:55.493Z,98922.58
2019-02-15T18:03:19.345Z,98926.41
2019-02-15T18:05:47.507Z,98921.31
2019-02-15T18:08:15.669Z,98917.48
2019-02-15T18:10:43.904Z,98919.96
2019-02-15T18:13:12.054Z,98914.62
2019-02-15T18:15:40.230Z,98918.86
2019-02-15T18:21:19.741Z,98907.85
2019-02-15T18:23:47.888Z,98911.61
2019-02-15T18:26:16.040Z,98911.97
2019-02-15T18:28:44.179Z,98907.36
2019-02-15T18:31:12.308Z,98908.98
2019-02-15T18:33:40.477Z,98900.10
2019-02-15T18:36:11.135Z,98904.39
2019-02-15T18:38:40.775Z,98905.24
2019-02-15T18:41:13.494Z,98902.84
2019-02-15T18:43:39.647Z,98902.30
2019-02-15T18:46:26.825Z,98903.11
2019-02-15T18:48:54.992Z,98901.48
2019-02-15T18:54:10.731Z,98903.89
2019-02-15T18:56:39.108Z,98907.92
2019-02-15T18:59:07.265Z,98907.97
2019-02-15T19:01:35.406Z,98899.08
2019-02-15T19:04:03.544Z,98900.67
2019-02-15T19:06:31.952Z,98901.48
2019-02-15T19:09:00.093Z,98895.33
2019-02-15T19:11:28.278Z,98895.86
2019-02-15T19:13:56.551Z,98891.83
2019-02-15T19:16:25.144Z,98888.88
2019-02-15T19:18:53.597Z,98889.95
2019-02-15T19:21:21.718Z,98884.28
2019-02-15T19:23:49.848Z,98883.75
2019-02-15T19:26:18.006Z,98883.47
2019-02-15T19:28:46.153Z,98886.69
2019-02-15T19:31:14.302Z,98883.22
2019-02-15T19:33:42.437Z,98887.87
2019-02-15T19:36:29.543Z,98886.77
2019-02-15T19:41:31.254Z,98883.54
2019-02-15T19:43:59.398Z,98882.98
2019-02-15T19:46:27.533Z,98873.06
2019-02-15T19:48:55.674Z,98876.32
2019-02-15T19:51:23.809Z,98873.80
2019-02-15T19:53:51.986Z,98877.09
2019-02-15T19:56:20.146Z,98882.56
2019-02-15T19:58:48.294Z,98874.98
2019-02-15T20:03:50.034Z,98871.52
2019-02-15T20:06:37.151Z,98870.73
2019-02-15T20:09:06.117Z,98865.84
2019-02-15T20:11:34.295Z,98868.53
2019-02-15T20:14:02.461Z,98867.72
2019-02-15T20:16:30.728Z,98864.78
2019-02-15T20:18:58.913Z,98862.88
2019-02-15T20:21:27.135Z,98863.16
2019-02-15T20:23:55.293Z,98860.47
2019-02-15T20:26:23.445Z,98856.44
2019-02-15T20:28:51.578Z,98848.89
2019-02-15T20:31:19.773Z,98849.98
2019-02-15T20:33:48.054Z,98849.45
2019-02-15T20:36:16.311Z,98849.17
2019-02-15T20:38:44.494Z,98848.92
2019-02-15T20:41:12.646Z,98851.09
2019-02-15T20:43:40.825Z,98850.84
2019-02-15T20:46:09.001Z,98854.91
2019-02-15T20:48:37.270Z,98851.41
2019-02-15T20:51:05.481Z,98845.75
2019-02-15T20:53:33.670Z,98849.53
2019-02-15T20:56:01.865Z,98844.69
2019-02-15T20:58:30.043Z,98846.81
2019-02-15T21:00:58.365Z,98843.63
2019-02-15T21:06:14.655Z,98842.28
2019-02-15T21:08:43.836Z,98839.59
2019-02-15T21:11:12.046Z,98834.20
2019-02-15T21:13:40.200Z,98831.73
2019-02-15T21:16:08.413Z,98831.72
2019-02-15T21:18:36.653Z,98835.15
2019-02-15T21:21:04.847Z,98832.25
2019-02-15T21:23:33.016Z,98831.20
2019-02-15T21:26:01.170Z,98828.75
2019-02-15T21:28:29.325Z,98831.97
2019-02-15T21:30:57.522Z,98823.12
2019-02-15T21:33:25.672Z,98818.28
2019-02-15T21:35:53.817Z,98818.59
2019-02-15T21:38:22.002Z,98825.04
2019-02-15T21:40:50.178Z,98820.19
2019-02-15T21:43:37.511Z,98819.09
2019-02-15T21:46:05.673Z,98814.03
2019-02-15T21:48:52.759Z,98815.67
2019-02-15T21:51:20.909Z,98810.00
2019-02-15T21:53:49.122Z,98810.00
2019-02-15T21:56:36.181Z,98808.08
2019-02-15T22:01:51.562Z,98802.70
2019-02-15T22:04:19.730Z,98801.36
2019-02-15T22:06:48.077Z,98798.66
2019-02-15T22:09:16.366Z,98800.02
2019-02-15T22:11:44.637Z,98799.81
2019-02-15T22:14:12.861Z,98800.62
2019-02-15T22:16:41.097Z,98800.05
2019-02-15T22:19:09.289Z,98800.34
2019-02-15T22:21:37.502Z,98790.39
2019-02-15T22:24:05.816Z,98783.18
2019-02-15T22:26:34.008Z,98785.88
2019-02-15T22:29:02.189Z,98787.50
2019-02-15T22:31:30.337Z,98793.70
2019-02-15T22:33:58.540Z,98778.58
2019-02-15T22:36:26.639Z,98782.13
2019-02-15T22:38:54.851Z,98776.17
2019-02-15T22:41:23.035Z,98776.46
2019-02-15T22:43:51.201Z,98775.41
2019-02-15T22:46:19.336Z,98778.38
2019-02-15T22:48:47.548Z,98780.55
2019-02-15T22:51:15.708Z,98780.01
2019-02-15T22:53:43.889Z,98779.48
2019-02-15T22:56:12.087Z,98771.70
2019-02-15T22:58:40.304Z,98774.64
2019-02-15T23:01:10.134Z,98772.80
2019-02-15T23:03:38.320Z,98776.27
2019-02-15T23:06:06.593Z,98767.70
2019-02-15T23:08:34.829Z,98769.83
2019-02-15T23:11:03.027Z,98774.14
2019-02-15T23:13:31.293Z,98770.39
2019-02-15T23:15:59.478Z,98770.39
2019-02-15T23:18:27.685Z,98773.86
2019-02-15T23:20:55.857Z,98770.11
2019-02-15T23:23:24.017Z,98769.87
2019-02-15T23:25:52.264Z,98779.52
2019-02-15T23:28:20.460Z,98776.30
2019-02-15T23:30:48.651Z,98774.63
2019-02-15T23:33:16.862Z,98772.22
2019-02-15T23:35:45.087Z,98775.53
2019-02-15T23:38:13.361Z,98780.86
2019-02-15T23:40:41.590Z,98770.59
2019-02-15T23:43:09.837Z,98781.16
2019-02-15T23:45:38.105Z,98776.88
2019-02-15T23:48:06.254Z,98772.84
2019-02-15T23:50:34.430Z,98775.57
2019-02-15T23:53:02.598Z,98768.20
2019-02-15T23:55:30.747Z,98773.57
2019-02-15T23:57:58.949Z,98778.17
